Schneifelwetter: Wetterstation Hallschlag, 537 m . NN
Wetterdaten: Dienstag, 11.08.2009
Datum Zeit Temp. A. Feuchte A. Luftdruck Regen Wind Richtung Richtung Sonnenschein Helligkeit T Regen Taupunkt Windchill
11.08.2009 00:00 13,7 C 80 % 1016 hPa 0,0 l/m 0,0 km/h (0 Bft) N 5 0 min 0 lux 0,00 min 10,3 C 13,7 C
11.08.2009 00:15 13,8 C 81 % 1016 hPa 0,0 l/m 0,0 km/h (0 Bft) N 5 0 min 0 lux 0,00 min 10,6 C 13,8 C
11.08.2009 00:30 13,9 C 82 % 1016 hPa 0,0 l/m 0,0 km/h (0 Bft) N 5 0 min 0 lux 0,00 min 10,9 C 13,9 C
11.08.2009 00:45 14,0 C 82 % 1016 hPa 0,0 l/m 0,0 km/h (0 Bft) N-NW 340 0 min 0 lux 0,00 min 11,0 C 14,0 C
11.08.2009 01:00 14,1 C 82 % 1016 hPa 0,0 l/m 5,9 km/h (2 Bft) W-SW 255 0 min 0 lux 0,00 min 11,1 C 14,1 C
11.08.2009 01:15 14,2 C 82 % 1016 hPa 0,0 l/m 0,0 km/h (0 Bft) W-SW 255 0 min 0 lux 0,00 min 11,2 C 14,2 C
11.08.2009 01:30 14,3 C 82 % 1016 hPa 0,0 l/m 7,6 km/h (2 Bft) W-SW22.5 255 0 min 0 lux 0,00 min 11,3 C 13,6 C
11.08.2009 01:46 14,5 C 82 % 1016 hPa 0,0 l/m 12,6 km/h (3 Bft) W22.5 260 0 min 0 lux 0,00 min 11,5 C 11,5 C
11.08.2009 02:01 14,7 C 81 % 1016 hPa 0,0 l/m 13,1 km/h (3 Bft) W22.5 265 0 min 0 lux 0,00 min 11,5 C 11,5 C
11.08.2009 02:16 14,8 C 82 % 1016 hPa 0,0 l/m 8,5 km/h (2 Bft) W 270 0 min 0 lux 0,00 min 11,8 C 13,6 C
11.08.2009 02:31 14,8 C 82 % 1016 hPa 0,0 l/m 8,0 km/h (2 Bft) W22.5 265 0 min 0 lux 0,00 min 11,8 C 13,9 C
11.08.2009 02:46 14,7 C 82 % 1016 hPa 0,0 l/m 5,9 km/h (2 Bft) W-SW22.5 255 0 min 0 lux 0,00 min 11,7 C 14,7 C
11.08.2009 03:01 14,3 C 82 % 1016 hPa 0,0 l/m 0,0 km/h (0 Bft) W-SW 250 0 min 0 lux 0,00 min 11,3 C 14,3 C
11.08.2009 03:16 14,1 C 83 % 1016 hPa 0,0 l/m 0,7 km/h (0 Bft) W-SW 250 0 min 0 lux 0,00 min 11,3 C 14,1 C
11.08.2009 03:31 13,6 C 84 % 1016 hPa 0,0 l/m 0,0 km/h (0 Bft) W-SW 250 0 min 0 lux 0,00 min 10,9 C 13,6 C
11.08.2009 03:46 13,6 C 86 % 1016 hPa 0,0 l/m 0,0 km/h (0 Bft) W-SW 250 0 min 0 lux 0,00 min 11,3 C 13,6 C
11.08.2009 04:01 13,4 C 86 % 1016 hPa 0,0 l/m 0,0 km/h (0 Bft) W-SW 250 0 min 0 lux 0,00 min 11,1 C 13,4 C
11.08.2009 04:16 13,5 C 87 % 1016 hPa 0,0 l/m 1,3 km/h (1 Bft) W-SW22.5 245 0 min 0 lux 0,00 min 11,4 C 13,5 C
11.08.2009 04:31 13,5 C 87 % 1016 hPa 0,0 l/m 0,0 km/h (0 Bft) W-SW 240 0 min 0 lux 0,00 min 11,4 C 13,5 C
11.08.2009 04:46 13,5 C 87 % 1016 hPa 0,0 l/m 7,8 km/h (2 Bft) W22.5 275 0 min 0 lux 0,00 min 11,4 C 12,6 C
11.08.2009 05:01 13,6 C 87 % 1016 hPa 0,0 l/m 13,8 km/h (3 Bft) W22.5 270 0 min 0 lux 0,00 min 11,5 C 9,9 C
11.08.2009 05:15 13,8 C 87 % 1016 hPa 0,0 l/m 10,1 km/h (2 Bft) W22.5 270 0 min 0 lux 0,00 min 11,7 C 11,7 C
11.08.2009 05:30 13,8 C 87 % 1016 hPa 0,0 l/m 10,5 km/h (2 Bft) W22.5 275 0 min 0 lux 0,00 min 11,7 C 11,6 C
11.08.2009 05:45 13,8 C 87 % 1016 hPa 0,0 l/m 9,6 km/h (2 Bft) W22.5 270 0 min 0 lux 0,00 min 11,7 C 12,0 C
11.08.2009 06:00 13,8 C 87 % 1016 hPa 0,0 l/m 10,3 km/h (2 Bft) W22.5 265 0 min 0 lux 0,00 min 11,7 C 11,6 C
11.08.2009 06:15 13,8 C 87 % 1016 hPa 0,0 l/m 11,5 km/h (2 Bft) W45 260 0 min 220 lux 0,00 min 11,7 C 11,1 C
11.08.2009 06:30 13,9 C 88 % 1016 hPa 0,0 l/m 24,3 km/h (4 Bft) W22.5 265 0 min 505 lux 0,00 min 11,9 C 7,3 C
11.08.2009 06:45 14,0 C 88 % 1016 hPa 0,0 l/m 15,5 km/h (3 Bft) W45 260 0 min 1,39 klux 0,00 min 12,0 C 9,8 C
11.08.2009 07:00 14,2 C 89 % 1016 hPa 0,0 l/m 18,8 km/h (3 Bft) W-SW22.5 255 0 min 1,89 klux 0,00 min 12,4 C 9,0 C
11.08.2009 07:15 14,2 C 90 % 1017 hPa 0,0 l/m 13,4 km/h (3 Bft) W-SW45 255 0 min 1,89 klux 0,00 min 12,6 C 10,8 C
11.08.2009 07:30 14,2 C 90 % 1017 hPa 0,0 l/m 12,3 km/h (3 Bft) W-SW22.5 255 0 min 4,52 klux 0,00 min 12,6 C 11,2 C
11.08.2009 07:45 14,4 C 91 % 1017 hPa 0,0 l/m 11,5 km/h (2 Bft) W-SW22.5 255 0 min 5,51 klux 0,00 min 12,9 C 11,8 C
11.08.2009 08:00 14,5 C 91 % 1017 hPa 0,0 l/m 13,8 km/h (3 Bft) W22.5 260 0 min 10,0 klux 0,00 min 13,0 C 11,0 C
11.08.2009 08:15 14,7 C 91 % 1017 hPa 0,3 l/m 13,7 km/h (3 Bft) W-SW22.5 250 0 min 12,0 klux 15,00 min 13,2 C 11,3 C
11.08.2009 08:31 15,0 C 91 % 1017 hPa 0,0 l/m 14,6 km/h (3 Bft) W-SW45 240 0 min 11,2 klux 0,00 min 13,5 C 11,3 C
11.08.2009 08:45 15,2 C 91 % 1017 hPa 0,3 l/m 15,1 km/h (3 Bft) W-SW22.5 255 0 min 14,7 klux 14,00 min 13,7 C 11,4 C
11.08.2009 09:00 15,5 C 91 % 1017 hPa 0,0 l/m 13,2 km/h (3 Bft) W-SW22.5 255 0 min 17,1 klux 0,00 min 14,0 C 12,4 C
11.08.2009 09:15 15,5 C 90 % 1017 hPa 0,0 l/m 16,3 km/h (3 Bft) W22.5 265 0 min 13,9 klux 0,00 min 13,9 C 11,4 C
11.08.2009 09:30 15,7 C 90 % 1017 hPa 0,0 l/m 18,3 km/h (3 Bft) W-SW22.5 255 0 min 20,1 klux 0,00 min 14,1 C 11,1 C
11.08.2009 09:45 16,1 C 91 % 1017 hPa 0,0 l/m 15,3 km/h (3 Bft) W-SW22.5 240 0 min 17,9 klux 0,00 min 14,6 C 12,4 C
11.08.2009 10:00 16,2 C 91 % 1017 hPa 0,3 l/m 18,7 km/h (3 Bft) W-SW22.5 250 0 min 22,6 klux 15,00 min 14,7 C 11,6 C
11.08.2009 10:15 16,4 C 90 % 1017 hPa 0,0 l/m 18,8 km/h (3 Bft) W-SW45 240 0 min 19,7 klux 0,00 min 14,8 C 11,8 C
11.08.2009 10:31 16,3 C 90 % 1017 hPa 0,0 l/m 16,5 km/h (3 Bft) W22.5 260 0 min 14,2 klux 0,00 min 14,7 C 12,3 C
11.08.2009 10:45 16,5 C 90 % 1018 hPa 0,6 l/m 18,8 km/h (3 Bft) W-SW45 255 0 min 33,0 klux 14,00 min 14,9 C 12,0 C
11.08.2009 11:00 17,3 C 89 % 1018 hPa 0,0 l/m 21,1 km/h (4 Bft) W45 265 0 min 41,8 klux 0,00 min 15,5 C 12,5 C
11.08.2009 11:15 17,9 C 88 % 1018 hPa 0,0 l/m 22,0 km/h (4 Bft) W-SW22.5 255 15 min 46,6 klux 0,00 min 15,9 C 13,1 C
11.08.2009 11:30 17,8 C 86 % 1018 hPa 0,0 l/m 20,9 km/h (4 Bft) W45 260 0 min 28,4 klux 0,00 min 15,4 C 13,2 C
11.08.2009 11:45 17,3 C 86 % 1018 hPa 1,5 l/m 14,4 km/h (3 Bft) W22.5 270 0 min 21,3 klux 15,00 min 14,9 C 14,2 C
11.08.2009 12:00 18,0 C 88 % 1018 hPa 0,3 l/m 18,0 km/h (3 Bft) W-SW22.5 255 15 min 51,0 klux 15,00 min 16,0 C 14,1 C
11.08.2009 12:16 18,8 C 84 % 1018 hPa 0,0 l/m 22,9 km/h (4 Bft) W22.5 265 16 min 75,2 klux 0,00 min 16,0 C 14,1 C
11.08.2009 12:30 19,2 C 83 % 1018 hPa 0,0 l/m 25,8 km/h (4 Bft) W45 260 14 min 128 klux 0,00 min 16,2 C 14,2 C
11.08.2009 12:45 20,0 C 82 % 1018 hPa 0,0 l/m 14,0 km/h (3 Bft) W22.5 260 15 min 117 klux 0,00 min 16,8 C 17,5 C
11.08.2009 13:00 19,3 C 79 % 1018 hPa 0,0 l/m 16,7 km/h (3 Bft) W45 280 15 min 48,4 klux 0,00 min 15,6 C 16,0 C
11.08.2009 13:15 19,5 C 79 % 1018 hPa 0,0 l/m 15,5 km/h (3 Bft) W45 265 15 min 58,2 klux 0,00 min 15,8 C 16,5 C
11.08.2009 13:30 19,7 C 79 % 1019 hPa 0,0 l/m 24,4 km/h (4 Bft) W22.5 270 15 min 86,7 klux 0,00 min 16,0 C 15,1 C
11.08.2009 13:45 20,5 C 77 % 1019 hPa 0,0 l/m 21,5 km/h (4 Bft) W22.5 270 15 min 55,4 klux 0,00 min 16,3 C 16,6 C
11.08.2009 14:01 20,9 C 74 % 1019 hPa 0,0 l/m 22,2 km/h (4 Bft) W22.5 275 16 min 101 klux 0,00 min 16,1 C 17,0 C
11.08.2009 14:16 21,1 C 75 % 1019 hPa 0,0 l/m 22,6 km/h (4 Bft) W-SW22.5 255 15 min 73,3 klux 0,00 min 16,5 C 17,2 C
11.08.2009 14:30 21,4 C 72 % 1018 hPa 0,0 l/m 21,6 km/h (4 Bft) W22.5 270 14 min 89,7 klux 0,00 min 16,1 C 17,8 C
11.08.2009 14:45 22,4 C 72 % 1018 hPa 0,0 l/m 18,1 km/h (3 Bft) W45 270 15 min 123 klux 0,00 min 17,1 C 19,6 C
11.08.2009 15:00 22,4 C 69 % 1018 hPa 0,0 l/m 19,0 km/h (3 Bft) W45 270 15 min 102 klux 0,00 min 16,4 C 19,5 C
11.08.2009 15:15 22,3 C 67 % 1018 hPa 0,0 l/m 20,9 km/h (4 Bft) W22.5 270 15 min 108 klux 0,00 min 15,9 C 19,0 C
11.08.2009 15:30 22,4 C 67 % 1018 hPa 0,0 l/m 20,6 km/h (4 Bft) W45 270 15 min 107 klux 0,00 min 16,0 C 19,2 C
11.08.2009 15:45 21,8 C 67 % 1018 hPa 0,0 l/m 18,8 km/h (3 Bft) W45 260 15 min 69,5 klux 0,00 min 15,4 C 18,7 C
11.08.2009 16:01 21,8 C 69 % 1019 hPa 0,0 l/m 23,6 km/h (4 Bft) W22.5 270 16 min 53,4 klux 0,00 min 15,9 C 18,0 C
11.08.2009 16:15 21,5 C 67 % 1019 hPa 0,0 l/m 21,3 km/h (4 Bft) W45 270 14 min 50,1 klux 0,00 min 15,1 C 17,9 C
11.08.2009 16:30 20,9 C 68 % 1018 hPa 0,0 l/m 20,1 km/h (4 Bft) W22.5 265 0 min 30,6 klux 0,00 min 14,8 C 17,4 C
11.08.2009 16:45 20,3 C 70 % 1019 hPa 0,0 l/m 21,1 km/h (4 Bft) W45 270 0 min 18,0 klux 0,00 min 14,6 C 16,4 C
11.08.2009 17:00 20,1 C 73 % 1019 hPa 0,0 l/m 16,2 km/h (3 Bft) W22.5 265 0 min 21,4 klux 0,00 min 15,1 C 17,1 C
11.08.2009 17:15 19,9 C 73 % 1019 hPa 0,0 l/m 14,1 km/h (3 Bft) W22.5 265 0 min 18,6 klux 0,00 min 14,9 C 17,3 C
11.08.2009 17:30 19,8 C 74 % 1019 hPa 0,0 l/m 12,1 km/h (2 Bft) W22.5 265 0 min 18,3 klux 0,00 min 15,0 C 17,8 C
11.08.2009 17:46 19,5 C 74 % 1019 hPa 0,0 l/m 12,1 km/h (2 Bft) W22.5 275 0 min 13,2 klux 0,00 min 14,7 C 17,4 C
11.08.2009 18:00 19,4 C 75 % 1019 hPa 0,0 l/m 8,0 km/h (2 Bft) W 265 0 min 21,6 klux 0,00 min 14,8 C 18,7 C
11.08.2009 18:15 19,8 C 75 % 1019 hPa 0,0 l/m 10,8 km/h (2 Bft) W-NW22.5 285 0 min 32,8 klux 0,00 min 15,2 C 18,2 C
11.08.2009 18:30 20,0 C 74 % 1019 hPa 0,0 l/m 16,5 km/h (3 Bft) W22.5 270 0 min 31,0 klux 0,00 min 15,2 C 16,9 C
11.08.2009 18:45 20,1 C 73 % 1019 hPa 0,0 l/m 11,5 km/h (2 Bft) W22.5 265 0 min 20,7 klux 0,00 min 15,1 C 18,3 C
11.08.2009 19:00 20,0 C 73 % 1019 hPa 0,0 l/m 10,9 km/h (2 Bft) W45 275 0 min 29,5 klux 0,00 min 15,0 C 18,4 C
11.08.2009 19:15 20,2 C 73 % 1019 hPa 0,0 l/m 10,3 km/h (2 Bft) W45 280 0 min 30,9 klux 0,00 min 15,2 C 18,8 C
11.08.2009 19:31 20,1 C 73 % 1019 hPa 0,0 l/m 12,7 km/h (3 Bft) W22.5 265 0 min 25,9 klux 0,00 min 15,1 C 18,0 C
11.08.2009 19:45 19,3 C 73 % 1019 hPa 0,0 l/m 14,5 km/h (3 Bft) W22.5 260 0 min 8,56 klux 0,00 min 14,3 C 16,5 C
11.08.2009 20:00 18,8 C 75 % 1019 hPa 0,0 l/m 11,3 km/h (2 Bft) W 270 0 min 9,7 klux 0,00 min 14,3 C 16,9 C
11.08.2009 20:15 18,5 C 76 % 1019 hPa 0,0 l/m 3,2 km/h (1 Bft) W 270 0 min 7,84 klux 0,00 min 14,2 C 18,5 C
11.08.2009 20:30 18,0 C 77 % 1019 hPa 0,0 l/m 10,4 km/h (2 Bft) W 265 0 min 4,77 klux 0,00 min 13,9 C 16,3 C
11.08.2009 20:45 17,5 C 78 % 1019 hPa 0,0 l/m 8,8 km/h (2 Bft) W22.5 260 0 min 2,76 klux 0,00 min 13,6 C 16,4 C
11.08.2009 21:00 17,0 C 80 % 1019 hPa 0,0 l/m 8,1 km/h (2 Bft) W 260 0 min 1,24 klux 0,00 min 13,5 C 16,2 C
11.08.2009 21:16 16,6 C 81 % 1019 hPa 0,0 l/m 5,2 km/h (1 Bft) W 260 0 min 355 lux 0,00 min 13,3 C 16,6 C
11.08.2009 21:30 16,0 C 81 % 1020 hPa 0,0 l/m 0,0 km/h (0 Bft) W 260 0 min 91 lux 0,00 min 12,7 C 16,0 C
11.08.2009 21:45 15,2 C 83 % 1020 hPa 0,0 l/m 0,0 km/h (0 Bft) W 260 0 min 13 lux 0,00 min 12,3 C 15,2 C
11.08.2009 22:00 14,6 C 84 % 1020 hPa 0,0 l/m 0,0 km/h (0 Bft) W 260 0 min 0 lux 0,00 min 11,9 C 14,6 C
11.08.2009 22:15 14,3 C 85 % 1020 hPa 0,0 l/m 4,4 km/h (1 Bft) W 260 0 min 0 lux 0,00 min 11,8 C 14,3 C
11.08.2009 22:30 14,5 C 88 % 1020 hPa 0,0 l/m 6,6 km/h (2 Bft) W 260 0 min 0 lux 0,00 min 12,5 C 14,4 C
11.08.2009 22:46 14,7 C 88 % 1020 hPa 0,0 l/m 0,0 km/h (0 Bft) W 260 0 min 0 lux 0,00 min 12,7 C 14,7 C
11.08.2009 23:01 14,6 C 88 % 1020 hPa 0,0 l/m 4,7 km/h (1 Bft) W-SW 255 0 min 0 lux 0,00 min 12,6 C 14,6 C
11.08.2009 23:15 14,4 C 89 % 1020 hPa 0,0 l/m 4,1 km/h (1 Bft) W-SW 255 0 min 0 lux 0,00 min 12,6 C 14,4 C
11.08.2009 23:30 14,1 C 88 % 1020 hPa 0,0 l/m 0,0 km/h (0 Bft) W 270 0 min 0 lux 0,00 min 12,1 C 14,1 C
11.08.2009 23:45 13,6 C 88 % 1020 hPa 0,0 l/m 0,0 km/h (0 Bft) W 265 0 min 0 lux 0,00 min 11,6 C 13,6 C
_ Min-Zeit 04:01 15:15 00:00 - 00:00 - - - - - 00:00 06:30
Minimum _ 13,4 C 67 % 1016 hPa - 0,0 km/h (0 Bft) - - - - - 10,3 C 7,3 C
_ Max-Zeit 14:45 07:45 21:30 11:45 12:30 - - 12:16 12:30 08:15 14:45 14:45
Maximum _ 22,4 C 91 % 1020 hPa 1,5 l/m 25,8 km/h
W (4 Bft)
- - 16 min 128 klux 15,00 min 17,1 C 19,6 C
Durchschnitt _ 16,8 C 82 % 1018 hPa #3,3 l/m 11,8 km/h (2 Bft) W - #4:45 h 23,0 klux #1:28 h 13,6 C 14,5 C